Wetterdaten: Montag, 01.12.2014
Datum Zeit Temp. A. Feuchte A. Luftdruck Regen Wind Richtung Richtung Sonnenschein ET UV Solar Taupunkt Windchill Windben Empfang
01.12.2014 00:00 1,2 C 80 % 1010,1 hPa 0,0 l/m 5,8 km/h (2 Bft) O 91 0 min 0,000 mm 0,0 UV-I 0 W/m -1,9 C 1,2 C 11,9 km/h (2 Bft) 0,00 %
01.12.2014 00:15 1,2 C 80 % 1009,6 hPa 0,0 l/m 14,4 km/h (3 Bft) O-SO 122 0 min 0,000 mm 0,0 UV-I 0 W/m -1,9 C -5,2 C 19,8 km/h (3 Bft) 0,00 %
01.12.2014 00:30 1,2 C 80 % 1009,4 hPa 0,0 l/m 5,8 km/h (2 Bft) SO 138 0 min 0,000 mm 0,0 UV-I 0 W/m -1,9 C 1,2 C 7,9 km/h (2 Bft) 0,00 %
01.12.2014 00:45 1,2 C 80 % 1009,2 hPa 0,0 l/m 7,9 km/h (2 Bft) SO 128 0 min 0,000 mm 0,0 UV-I 0 W/m -1,9 C -0,3 C 11,9 km/h (2 Bft) 0,00 %
01.12.2014 01:00 1,2 C 80 % 1009,3 hPa 0,0 l/m 4,3 km/h (1 Bft) S 174 0 min 0,000 mm 0,0 UV-I 0 W/m -1,9 C 1,2 C 7,9 km/h (2 Bft) 0,00 %
01.12.2014 01:15 1,2 C 80 % 1009,6 hPa 0,0 l/m 8,3 km/h (2 Bft) SO 128 0 min 0,000 mm 0,0 UV-I 0 W/m -1,9 C -0,7 C 15,8 km/h (3 Bft) 0,00 %
01.12.2014 01:30 1,2 C 80 % 1009,0 hPa 0,0 l/m 3,2 km/h (1 Bft) O-SO 118 0 min 0,000 mm 0,0 UV-I 0 W/m -1,9 C 1,2 C 7,9 km/h (2 Bft) 0,00 %
01.12.2014 01:45 1,2 C 80 % 1009,0 hPa 0,0 l/m 8,3 km/h (2 Bft) O-SO 117 0 min 0,000 mm 0,0 UV-I 0 W/m -1,9 C -0,7 C 11,9 km/h (2 Bft) 0,00 %
01.12.2014 02:00 1,2 C 80 % 1009,0 hPa 0,0 l/m 15,8 km/h (3 Bft) O 101 0 min 0,000 mm 0,0 UV-I 0 W/m -1,9 C -6,0 C 19,8 km/h (3 Bft) 0,00 %
01.12.2014 02:15 1,1 C 80 % 1008,7 hPa 0,0 l/m 21,6 km/h (4 Bft) NO 52 0 min 0,000 mm 0,0 UV-I 0 W/m -2,0 C -8,9 C 28,1 km/h (4 Bft) 0,00 %
01.12.2014 02:30 1,1 C 80 % 1008,8 hPa 0,0 l/m 12,2 km/h (2 Bft) O-NO 58 0 min 0,000 mm 0,0 UV-I 0 W/m -2,0 C -3,9 C 24,1 km/h (4 Bft) 0,00 %
01.12.2014 02:45 1,1 C 80 % 1008,7 hPa 0,0 l/m 16,6 km/h (3 Bft) S-SO 153 0 min 0,000 mm 0,0 UV-I 0 W/m -2,0 C -6,5 C 24,1 km/h (4 Bft) 0,00 %
01.12.2014 03:00 1,1 C 80 % 1008,4 hPa 0,0 l/m 29,2 km/h (5 Bft) O 86 0 min 0,000 mm 0,0 UV-I 0 W/m -2,0 C -11,6 C 36,0 km/h (5 Bft) 0,00 %
01.12.2014 03:15 1,0 C 80 % 1008,3 hPa 0,0 l/m 14,4 km/h (3 Bft) O 83 0 min 0,000 mm 0,0 UV-I 0 W/m -2,1 C -5,4 C 19,8 km/h (3 Bft) 0,00 %
01.12.2014 03:30 1,0 C 80 % 1008,1 hPa 0,0 l/m 21,6 km/h (4 Bft) O 88 0 min 0,000 mm 0,0 UV-I 0 W/m -2,1 C -9,0 C 28,1 km/h (4 Bft) 0,00 %
01.12.2014 03:45 1,0 C 80 % 1008,1 hPa 0,0 l/m 22,3 km/h (4 Bft) O-SO 116 0 min 0,000 mm 0,0 UV-I 0 W/m -2,1 C -9,3 C 32,0 km/h (5 Bft) 0,00 %
01.12.2014 04:00 1,0 C 80 % 1007,7 hPa 0,0 l/m 14,0 km/h (3 Bft) NO 48 0 min 0,000 mm 0,0 UV-I 0 W/m -2,1 C -5,2 C 19,8 km/h (3 Bft) 0,00 %
01.12.2014 04:15 1,0 C 79 % 1007,1 hPa 0,0 l/m 27,0 km/h (4 Bft) O 89 0 min 0,000 mm 0,0 UV-I 0 W/m -2,2 C -11,1 C 36,0 km/h (5 Bft) 0,00 %
01.12.2014 04:30 1,0 C 79 % 1007,5 hPa 0,0 l/m 10,4 km/h (2 Bft) O 88 0 min 0,000 mm 0,0 UV-I 0 W/m -2,2 C -2,7 C 15,8 km/h (3 Bft) 0,00 %
01.12.2014 04:45 0,9 C 80 % 1007,7 hPa 0,0 l/m 7,9 km/h (2 Bft) S 188 0 min 0,000 mm 0,0 UV-I 0 W/m -2,2 C -0,6 C 11,9 km/h (2 Bft) 0,00 %
01.12.2014 05:00 0,9 C 80 % 1007,4 hPa 0,0 l/m 1,8 km/h (1 Bft) SO 141 0 min 0,000 mm 0,0 UV-I 0 W/m -2,2 C 0,9 C 4,0 km/h (1 Bft) 0,00 %
01.12.2014 05:15 0,9 C 80 % 1007,6 hPa 0,0 l/m 13,0 km/h (3 Bft) O 101 0 min 0,000 mm 0,0 UV-I 0 W/m -2,2 C -4,6 C 19,8 km/h (3 Bft) 0,00 %
01.12.2014 05:30 0,9 C 80 % 1007,8 hPa 0,0 l/m 5,8 km/h (2 Bft) S 181 0 min 0,000 mm 0,0 UV-I 0 W/m -2,2 C 0,9 C 7,9 km/h (2 Bft) 0,00 %
01.12.2014 05:45 1,0 C 79 % 1007,6 hPa 0,0 l/m 10,4 km/h (2 Bft) O 85 0 min 0,000 mm 0,0 UV-I 0 W/m -2,2 C -2,7 C 19,8 km/h (3 Bft) 0,00 %
01.12.2014 06:00 0,9 C 79 % 1007,5 hPa 0,0 l/m 6,8 km/h (2 Bft) O 80 0 min 0,000 mm 0,0 UV-I 0 W/m -2,3 C 0,5 C 11,9 km/h (2 Bft) 0,00 %
01.12.2014 06:15 0,9 C 79 % 1007,4 hPa 0,0 l/m 23,4 km/h (4 Bft) O 85 0 min 0,000 mm 0,0 UV-I 0 W/m -2,3 C -9,9 C 32,0 km/h (5 Bft) 0,00 %
01.12.2014 06:30 0,9 C 79 % 1007,1 hPa 0,0 l/m 21,6 km/h (4 Bft) O 82 0 min 0,000 mm 0,0 UV-I 0 W/m -2,3 C -9,2 C 28,1 km/h (4 Bft) 0,00 %
01.12.2014 06:45 0,9 C 79 % 1007,2 hPa 0,0 l/m 13,0 km/h (3 Bft) O-SO 108 0 min 0,000 mm 0,0 UV-I 0 W/m -2,3 C -4,6 C 15,8 km/h (3 Bft) 0,00 %
01.12.2014 07:00 0,9 C 80 % 1007,1 hPa 0,0 l/m 27,4 km/h (4 Bft) SO 135 0 min 0,000 mm 0,0 UV-I 0 W/m -2,2 C -11,3 C 36,0 km/h (5 Bft) 0,00 %
01.12.2014 07:15 0,8 C 79 % 1007,0 hPa 0,6 l/m 18,0 km/h (3 Bft) O 89 0 min 0,000 mm 0,0 UV-I 0 W/m -2,4 C -7,6 C 24,1 km/h (4 Bft) 0,00 %
01.12.2014 07:30 0,9 C 79 % 1006,8 hPa 0,0 l/m 15,8 km/h (3 Bft) O-NO 74 0 min 0,000 mm 0,0 UV-I 0 W/m -2,3 C -6,4 C 28,1 km/h (4 Bft) 0,00 %
01.12.2014 07:45 0,9 C 79 % 1007,2 hPa 0,0 l/m 13,0 km/h (3 Bft) O 101 0 min 0,000 mm 0,0 UV-I 0 W/m -2,3 C -4,6 C 24,1 km/h (4 Bft) 0,00 %
01.12.2014 08:00 0,9 C 79 % 1006,8 hPa 0,3 l/m 19,4 km/h (3 Bft) S 172 0 min 0,000 mm 0,0 UV-I 0 W/m -2,3 C -8,2 C 24,1 km/h (4 Bft) 0,00 %
01.12.2014 08:15 1,0 C 79 % 1007,0 hPa 0,3 l/m 27,0 km/h (4 Bft) O-SO 105 0 min 0,000 mm 0,0 UV-I 0 W/m -2,2 C -11,1 C 32,0 km/h (5 Bft) 0,00 %
01.12.2014 08:30 1,1 C 79 % 1006,9 hPa 0,0 l/m 23,0 km/h (4 Bft) O-NO 70 0 min 0,000 mm 0,0 UV-I 0 W/m -2,1 C -9,5 C 32,0 km/h (5 Bft) 0,00 %
01.12.2014 08:45 1,1 C 79 % 1007,0 hPa 0,3 l/m 12,2 km/h (2 Bft) O-SO 111 0 min 0,000 mm 0,0 UV-I 6 W/m -2,1 C -3,9 C 19,8 km/h (3 Bft) 0,00 %
01.12.2014 09:00 1,2 C 79 % 1006,9 hPa 0,0 l/m 24,1 km/h (4 Bft) O-SO 115 0 min 0,000 mm 0,0 UV-I 12 W/m -2,0 C -9,8 C 32,0 km/h (5 Bft) 0,00 %
01.12.2014 09:15 1,3 C 79 % 1006,5 hPa 0,0 l/m 7,9 km/h (2 Bft) SO 135 0 min 0,000 mm 0,0 UV-I 21 W/m -1,9 C -0,2 C 11,9 km/h (2 Bft) 0,00 %
01.12.2014 09:30 1,3 C 79 % 1006,8 hPa 0,0 l/m 9,7 km/h (2 Bft) O-SO 107 0 min 0,000 mm 0,0 UV-I 25 W/m -1,9 C -1,8 C 11,9 km/h (2 Bft) 0,00 %
01.12.2014 09:45 1,4 C 79 % 1006,8 hPa 0,0 l/m 19,1 km/h (3 Bft) O-SO 116 0 min 0,000 mm 0,0 UV-I 18 W/m -1,8 C -7,4 C 28,1 km/h (4 Bft) 0,00 %
01.12.2014 10:00 1,4 C 78 % 1006,6 hPa 0,0 l/m 22,3 km/h (4 Bft) O 94 0 min 0,000 mm 0,0 UV-I 18 W/m -2,0 C -8,8 C 28,1 km/h (4 Bft) 0,00 %
01.12.2014 10:15 1,5 C 78 % 1006,4 hPa 0,0 l/m 20,9 km/h (4 Bft) O-SO 103 0 min 0,000 mm 0,0 UV-I 23 W/m -1,9 C -8,1 C 28,1 km/h (4 Bft) 0,00 %
01.12.2014 10:30 1,6 C 78 % 1006,2 hPa 0,0 l/m 40,0 km/h (6 Bft) O-SO 106 0 min 0,000 mm 0,0 UV-I 31 W/m -1,8 C -13,6 C 52,2 km/h (7 Bft) 0,00 %
01.12.2014 10:45 1,8 C 78 % 1006,1 hPa 0,0 l/m 28,1 km/h (4 Bft) S 175 0 min 0,000 mm 0,0 UV-I 31 W/m -1,6 C -10,3 C 32,0 km/h (5 Bft) 0,00 %
01.12.2014 11:00 1,8 C 78 % 1005,6 hPa 0,0 l/m 18,4 km/h (3 Bft) SO 124 0 min 0,000 mm 0,0 UV-I 31 W/m -1,6 C -6,6 C 24,1 km/h (4 Bft) 0,00 %
01.12.2014 11:15 1,9 C 78 % 1005,5 hPa 0,0 l/m 37,1 km/h (5 Bft) O 96 0 min 0,000 mm 0,0 UV-I 34 W/m -1,5 C -12,5 C 44,3 km/h (6 Bft) 0,00 %
01.12.2014 11:30 2,1 C 78 % 1005,5 hPa 0,0 l/m 11,9 km/h (2 Bft) O-SO 107 0 min 0,000 mm 0,0 UV-I 39 W/m -1,3 C -2,5 C 19,8 km/h (3 Bft) 0,00 %
01.12.2014 11:45 2,1 C 78 % 1005,6 hPa 0,0 l/m 10,4 km/h (2 Bft) SO 134 0 min 0,000 mm 0,0 UV-I 34 W/m -1,3 C -1,4 C 15,8 km/h (3 Bft) 0,00 %
01.12.2014 12:00 2,2 C 78 % 1005,5 hPa 0,0 l/m 10,8 km/h (2 Bft) O 82 0 min 0,000 mm 0,0 UV-I 21 W/m -1,2 C -1,6 C 15,8 km/h (3 Bft) 0,00 %
01.12.2014 12:15 2,2 C 78 % 1005,2 hPa 0,0 l/m 12,2 km/h (2 Bft) O 97 0 min 0,000 mm 0,0 UV-I 29 W/m -1,2 C -2,6 C 19,8 km/h (3 Bft) 0,00 %
01.12.2014 12:30 2,1 C 78 % 1005,0 hPa 0,0 l/m 19,8 km/h (3 Bft) O-SO 121 0 min 0,000 mm 0,0 UV-I 28 W/m -1,3 C -6,8 C 24,1 km/h (4 Bft) 0,00 %
01.12.2014 12:45 2,1 C 78 % 1004,7 hPa 0,0 l/m 25,6 km/h (4 Bft) O-SO 113 0 min 0,000 mm 1,0 UV-I 38 W/m -1,3 C -9,1 C 32,0 km/h (5 Bft) 0,00 %
01.12.2014 13:00 2,1 C 78 % 1004,6 hPa 0,0 l/m 20,9 km/h (4 Bft) O 101 0 min 0,000 mm 1,0 UV-I 45 W/m -1,3 C -7,3 C 28,1 km/h (4 Bft) 0,00 %
01.12.2014 13:15 2,2 C 77 % 1004,3 hPa 0,0 l/m 20,9 km/h (4 Bft) O 86 0 min 0,000 mm 1,0 UV-I 44 W/m -1,4 C -7,2 C 28,1 km/h (4 Bft) 0,00 %
01.12.2014 13:30 2,2 C 77 % 1004,3 hPa 0,0 l/m 22,0 km/h (4 Bft) O 100 0 min 0,000 mm 1,0 UV-I 45 W/m -1,4 C -7,6 C 28,1 km/h (4 Bft) 0,00 %
01.12.2014 13:45 2,3 C 80 % 1004,1 hPa 0,0 l/m 14,4 km/h (3 Bft) SO 135 0 min 0,000 mm 1,0 UV-I 69 W/m -0,8 C -3,9 C 19,8 km/h (3 Bft) 0,00 %
01.12.2014 14:00 2,5 C 80 % 1004,2 hPa 0,0 l/m 24,1 km/h (4 Bft) O-SO 117 0 min 0,000 mm 1,0 UV-I 87 W/m -0,6 C -8,0 C 32,0 km/h (5 Bft) 0,00 %
01.12.2014 14:15 2,5 C 80 % 1004,1 hPa 0,0 l/m 19,4 km/h (3 Bft) O 96 0 min 0,000 mm 1,0 UV-I 78 W/m -0,6 C -6,1 C 24,1 km/h (4 Bft) 0,00 %
01.12.2014 14:30 2,4 C 80 % 1004,1 hPa 0,0 l/m 14,8 km/h (3 Bft) O-SO 111 0 min 0,000 mm 0,0 UV-I 41 W/m -0,7 C -4,0 C 28,1 km/h (4 Bft) 0,00 %
01.12.2014 14:45 2,4 C 76 % 1004,0 hPa 0,0 l/m 28,4 km/h (4 Bft) S-SO 154 0 min 0,000 mm 0,0 UV-I 32 W/m -1,4 C -9,6 C 40,0 km/h (6 Bft) 0,00 %
01.12.2014 15:00 2,3 C 76 % 1004,1 hPa 0,0 l/m 10,4 km/h (2 Bft) O-NO 60 0 min 0,000 mm 0,0 UV-I 27 W/m -1,5 C -1,2 C 15,8 km/h (3 Bft) 0,00 %
01.12.2014 15:15 2,3 C 75 % 1004,2 hPa 0,0 l/m 11,9 km/h (2 Bft) O 91 0 min 0,000 mm 0,0 UV-I 22 W/m -1,7 C -2,3 C 19,8 km/h (3 Bft) 0,00 %
01.12.2014 15:30 2,3 C 75 % 1004,1 hPa 0,0 l/m 21,6 km/h (4 Bft) O-SO 108 0 min 0,000 mm 0,0 UV-I 9 W/m -1,7 C -7,3 C 32,0 km/h (5 Bft) 0,00 %
01.12.2014 15:45 2,2 C 75 % 1004,5 hPa 0,0 l/m 24,5 km/h (4 Bft) O-SO 118 0 min 0,000 mm 0,0 UV-I 4 W/m -1,8 C -8,6 C 28,1 km/h (4 Bft) 0,00 %
01.12.2014 16:00 2,2 C 75 % 1004,5 hPa 0,0 l/m 26,6 km/h (4 Bft) O-SO 109 0 min 0,000 mm 0,0 UV-I 0 W/m -1,8 C -9,3 C 36,0 km/h (5 Bft) 0,00 %
01.12.2014 16:15 2,1 C 75 % 1004,8 hPa 0,0 l/m 9,0 km/h (2 Bft) O 94 0 min 0,000 mm 0,0 UV-I 0 W/m -1,9 C -0,3 C 11,9 km/h (2 Bft) 0,00 %
01.12.2014 16:30 2,0 C 75 % 1004,9 hPa 0,0 l/m 16,6 km/h (3 Bft) O-SO 108 0 min 0,000 mm 0,0 UV-I 0 W/m -2,0 C -5,4 C 24,1 km/h (4 Bft) 0,00 %
01.12.2014 16:45 2,0 C 74 % 1004,9 hPa 0,0 l/m 15,5 km/h (3 Bft) O-SO 102 0 min 0,000 mm 0,0 UV-I 0 W/m -2,1 C -4,8 C 19,8 km/h (3 Bft) 0,00 %
01.12.2014 17:00 2,0 C 74 % 1004,7 hPa 0,0 l/m 22,0 km/h (4 Bft) O 86 0 min 0,000 mm 0,0 UV-I 0 W/m -2,1 C -7,9 C 24,1 km/h (4 Bft) 0,00 %
01.12.2014 17:15 2,0 C 74 % 1004,7 hPa 0,0 l/m 24,1 km/h (4 Bft) SO 125 0 min 0,000 mm 0,0 UV-I 0 W/m -2,1 C -8,7 C 36,0 km/h (5 Bft) 0,00 %
01.12.2014 17:30 1,9 C 73 % 1004,8 hPa 0,0 l/m 24,1 km/h (4 Bft) O 98 0 min 0,000 mm 0,0 UV-I 0 W/m -2,4 C -8,8 C 36,0 km/h (5 Bft) 0,00 %
01.12.2014 17:45 1,9 C 73 % 1005,1 hPa 0,0 l/m 15,5 km/h (3 Bft) S 184 0 min 0,000 mm 0,0 UV-I 0 W/m -2,4 C -5,0 C 24,1 km/h (4 Bft) 0,00 %
01.12.2014 18:00 2,0 C 72 % 1004,6 hPa 0,0 l/m 9,0 km/h (2 Bft) O-NO 78 0 min 0,000 mm 0,0 UV-I 0 W/m -2,5 C -0,4 C 15,8 km/h (3 Bft) 0,00 %
01.12.2014 18:15 1,9 C 72 % 1005,0 hPa 0,0 l/m 16,9 km/h (3 Bft) O 88 0 min 0,000 mm 0,0 UV-I 0 W/m -2,6 C -5,7 C 24,1 km/h (4 Bft) 0,00 %
01.12.2014 18:30 2,0 C 72 % 1005,1 hPa 0,0 l/m 13,3 km/h (3 Bft) NO 39 0 min 0,000 mm 0,0 UV-I 0 W/m -2,5 C -3,5 C 19,8 km/h (3 Bft) 0,00 %
01.12.2014 18:45 2,0 C 72 % 1005,2 hPa 0,0 l/m 10,8 km/h (2 Bft) O-SO 103 0 min 0,000 mm 0,0 UV-I 0 W/m -2,5 C -1,8 C 15,8 km/h (3 Bft) 0,00 %
01.12.2014 19:00 2,0 C 72 % 1005,4 hPa 0,0 l/m 17,3 km/h (3 Bft) O 94 0 min 0,000 mm 0,0 UV-I 0 W/m -2,5 C -5,8 C 24,1 km/h (4 Bft) 0,00 %
01.12.2014 19:15 2,0 C 72 % 1005,7 hPa 0,0 l/m 20,9 km/h (4 Bft) O 95 0 min 0,000 mm 0,0 UV-I 0 W/m -2,5 C -7,4 C 28,1 km/h (4 Bft) 0,00 %
01.12.2014 19:30 2,0 C 72 % 1005,9 hPa 0,0 l/m 9,0 km/h (2 Bft) O-NO 78 0 min 0,000 mm 0,0 UV-I 0 W/m -2,5 C -0,4 C 15,8 km/h (3 Bft) 0,00 %
01.12.2014 19:45 2,0 C 72 % 1005,9 hPa 0,0 l/m 18,4 km/h (3 Bft) O-NO 73 0 min 0,000 mm 0,0 UV-I 0 W/m -2,5 C -6,3 C 24,1 km/h (4 Bft) 0,00 %
01.12.2014 20:00 1,9 C 73 % 1005,9 hPa 0,0 l/m 4,7 km/h (1 Bft) N 357 0 min 0,000 mm 0,0 UV-I 0 W/m -2,4 C 1,9 C 11,9 km/h (2 Bft) 0,00 %
01.12.2014 20:15 1,9 C 73 % 1006,1 hPa 0,0 l/m 14,0 km/h (3 Bft) O 87 0 min 0,000 mm 0,0 UV-I 0 W/m -2,4 C -4,1 C 15,8 km/h (3 Bft) 0,00 %
01.12.2014 20:30 1,8 C 73 % 1006,2 hPa 0,0 l/m 4,7 km/h (1 Bft) O 91 0 min 0,000 mm 0,0 UV-I 0 W/m -2,5 C 1,8 C 7,9 km/h (2 Bft) 0,00 %
01.12.2014 20:45 1,8 C 73 % 1006,2 hPa 0,0 l/m 9,0 km/h (2 Bft) O-SO 103 0 min 0,000 mm 0,0 UV-I 0 W/m -2,5 C -0,6 C 11,9 km/h (2 Bft) 0,00 %
01.12.2014 21:00 1,8 C 73 % 1006,2 hPa 0,0 l/m 6,5 km/h (2 Bft) O-SO 110 0 min 0,000 mm 0,0 UV-I 0 W/m -2,5 C 1,7 C 11,9 km/h (2 Bft) 0,00 %
01.12.2014 21:15 1,7 C 73 % 1006,5 hPa 0,0 l/m 6,8 km/h (2 Bft) S-SO 152 0 min 0,000 mm 0,0 UV-I 0 W/m -2,6 C 1,3 C 11,9 km/h (2 Bft) 0,00 %
01.12.2014 21:30 1,7 C 74 % 1006,7 hPa 0,0 l/m 5,4 km/h (1 Bft) SO 132 0 min 0,000 mm 0,0 UV-I 0 W/m -2,4 C 1,7 C 7,9 km/h (2 Bft) 0,00 %
01.12.2014 21:45 1,6 C 74 % 1006,6 hPa 0,0 l/m 13,3 km/h (3 Bft) O-SO 111 0 min 0,000 mm 0,0 UV-I 0 W/m -2,5 C -4,0 C 15,8 km/h (3 Bft) 0,00 %
01.12.2014 22:00 1,6 C 74 % 1006,7 hPa 0,0 l/m 1,4 km/h (1 Bft) SO 140 0 min 0,000 mm 0,0 UV-I 0 W/m -2,5 C 1,6 C 4,0 km/h (1 Bft) 0,00 %
01.12.2014 22:15 1,5 C 74 % 1006,7 hPa 0,0 l/m 6,5 km/h (2 Bft) O 100 0 min 0,000 mm 0,0 UV-I 0 W/m -2,6 C 1,4 C 11,9 km/h (2 Bft) 0,00 %
01.12.2014 22:30 1,5 C 74 % 1007,0 hPa 0,0 l/m 2,2 km/h (1 Bft) N 357 0 min 0,000 mm 0,0 UV-I 0 W/m -2,6 C 1,5 C 4,0 km/h (1 Bft) 0,00 %
01.12.2014 22:45 1,5 C 74 % 1007,1 hPa 0,0 l/m 0,7 km/h (0 Bft) S-SO 167 0 min 0,000 mm 0,0 UV-I 0 W/m -2,6 C 1,5 C 4,0 km/h (1 Bft) 0,00 %
01.12.2014 23:00 1,4 C 76 % 1007,2 hPa 0,0 l/m 7,2 km/h (2 Bft) O-SO 111 0 min 0,000 mm 0,0 UV-I 0 W/m -2,4 C 0,6 C 11,9 km/h (2 Bft) 0,00 %
01.12.2014 23:15 1,4 C 76 % 1007,3 hPa 0,0 l/m 10,8 km/h (2 Bft) O 100 0 min 0,000 mm 0,0 UV-I 0 W/m -2,4 C -2,5 C 11,9 km/h (2 Bft) 0,00 %
01.12.2014 23:30 1,3 C 76 % 1007,3 hPa 0,0 l/m 5,8 km/h (2 Bft) O 99 0 min 0,000 mm 0,0 UV-I 0 W/m -2,5 C 1,3 C 7,9 km/h (2 Bft) 0,00 %
01.12.2014 23:45 1,3 C 77 % 1007,4 hPa 0,0 l/m 12,2 km/h (2 Bft) O-SO 120 0 min 0,000 mm 0,0 UV-I 0 W/m -2,3 C -3,6 C 15,8 km/h (3 Bft) 0,00 %
_ Min-Zeit 07:15 18:00 14:45 - 22:45 - - - - - - 22:15 10:30 05:00 00:00
Minimum _ 0,8 C 72 % 1004,0 hPa - 0,7 km/h (0 Bft) - - - - - - -2,6 C -13,6 C 4,0 km/h (1 Bft) 0,00 %
_ Max-Zeit 14:00 00:00 00:00 07:15 10:30 - - 00:00 00:00 12:45 14:00 14:00 20:00 10:30 00:00
Maximum _ 2,5 C 80 % 1010,1 hPa 0,6 l/m 40,0 km/h
O-SO (6 Bft)
- - 0 min 0,000 mm 1,0 UV-I 87 W/m -0,6 C 1,9 C 52,2 km/h
O-SO (7 Bft)
0,00 %
Durchschnitt _ 1,6 C 77 % 1006,4 hPa #1,5 l/m 15,2 km/h (3 Bft) O - #0 min. #0,000 mm 1,0 UV-I 32 W/m -2,0 C -4,5 C 21,3 km/h (4 Bft) 0,00 %